Terminal Aerodrome Forecast
Issued by NWS

Home | Current Version | Previous Version | Graphics & Text | Print | Product List | Glossary On
Versions: 1 2 3 4 5 6 7 8 9 10 11 12 13 14 15 16 17 18 19 20 21 22
000
FTUS43 KBIS 160500
TAFMOT
TAF
KMOT 160530Z 1606/1706 34007KT P6SM OVC025
     FM161100 35003KT P6SM SCT020
      TEMPO 1611/1614 BKN020
     FM161900 03003KT P6SM SCT025
     FM170000 11003KT P6SM SKC=

USA.gov is the U.S. government's official web portal to all federal, state and local government web resources and services.